Latest Weather Observations for Cummins Airport

IDS60801

Issued at 8:02 am CDT Thursday 18 December 2014 (issued every 30 minutes, with the page automatically refreshed every 10 minutes)

About weather observations | Map of weather stations | Latest weather observations for SA | Other Formats
Station Details ID: 018217 Name: CUMMINS AERO Lat: -34.25 Lon: 135.71 Height: 60.11 m
Data from the previous 72 hours. | See also: Recent months at Cummins Airport
Date/Time
CDT
Temp
°C
App
Temp
°C
Dew
Point
Rel
Hum
%
Delta-T
°C
Wind Press
QNH
hPa
Press
MSL
hPa
Rain
since 9 am
mm
Dir
 
Spd
km/h
Gust
km/h
Spd
kts
Gust
kts
18/08:00am 16.7 15.5 11.6 72 2.8 WNW 9 19 5 10 1012.2 1012.0 0.0
18/07:30am 12.5 12.2 8.8 78 1.9 CALM 0 7 0 4 1011.9 1011.7 0.0
18/07:00am 10.5 9.9 7.6 82 1.4 CALM 0 0 0 0 1011.6 1011.4 0.0
18/06:30am 8.3 6.1 6.1 86 1.0 NNE 7 7 4 4 1011.3 1011.1 0.0
18/06:00am 8.0 5.7 5.5 84 1.1 NE 7 9 4 5 1010.7 1010.6 0.0
18/05:30am 8.7 6.6 6.7 87 0.9 NNE 7 7 4 4 1010.3 1010.2 0.0
18/05:00am 8.5 5.9 6.1 85 1.1 N 9 13 5 7 1009.9 1009.8 0.0
18/04:30am 8.8 6.8 6.1 83 1.2 N 6 7 3 4 1009.9 1009.8 0.0
18/04:00am 9.0 6.4 6.3 83 1.2 NNE 9 11 5 6 1009.8 1009.7 0.0
18/03:30am 8.2 5.4 5.0 80 1.4 NNE 9 9 5 5 1009.8 1009.7 0.0
18/03:00am 8.2 5.9 4.8 79 1.5 NNE 6 7 3 4 1009.9 1009.8 0.0
18/02:30am 8.7 7.3 5.3 79 1.5 NNE 2 7 1 4 1009.7 1009.6 0.0
18/02:00am 9.1 7.5 4.7 74 2.0 N 2 7 1 4 1009.7 1009.6 0.0
18/01:30am 9.5 7.2 5.7 77 1.7 NNE 7 9 4 5 1009.8 1009.7 0.0
18/01:00am 9.2 6.4 5.0 75 1.9 NNE 9 11 5 6 1009.5 1009.4 0.0
18/12:30am 9.3 6.8 4.5 72 2.1 NNE 7 9 4 5 1009.7 1009.6 0.0
18/12:00am 10.4 9.4 5.4 71 2.3 CALM 0 0 0 0 1009.7 1009.6 0.0
 
Date/Time
CDT
Temp
°C
App
Temp
°C
Dew
Point
Rel
Hum
%
Delta-T
°C
Wind Press
QNH
hPa
Press
MSL
hPa
Rain
since 9 am
mm
Dir
 
Spd
km/h
Gust
km/h
Spd
kts
Gust
kts
17/11:30pm 10.9 9.1 5.4 69 2.5 NNE 4 6 2 3 1009.8 1009.7 0.0
17/11:00pm 11.3 9.2 6.0 70 2.5 NE 6 7 3 4 1010.0 1009.9 0.0
17/10:30pm 13.0 10.8 6.4 64 3.2 WNW 7 9 4 5 1009.9 1009.8 0.0
17/10:00pm 13.7 11.8 7.7 67 3.0 W 7 9 4 5 1009.6 1009.5 0.0
17/09:30pm 14.5 12.2 7.5 63 3.5 W 9 13 5 7 1009.8 1009.7 0.0
17/09:00pm 15.8 12.8 7.6 58 4.1 WSW 13 19 7 10 1009.7 1009.6 0.0
17/08:30pm 16.9 13.1 7.5 54 4.7 WSW 17 20 9 11 1009.6 1009.5 0.0
17/08:00pm 17.9 12.7 7.3 50 5.3 WSW 24 30 13 16 1009.4 1009.3 0.0
17/07:30pm 18.6 13.4 7.4 48 5.7 WSW 24 30 13 16 1008.9 1008.8 0.0
17/07:00pm 19.4 12.8 7.8 47 6.0 WSW 32 39 17 21 1008.7 1008.6 0.0
17/06:30pm 20.2 13.9 7.6 44 6.5 W 30 41 16 22 1008.2 1008.1 0.0
17/06:00pm 20.6 14.3 7.6 43 6.7 W 30 41 16 22 1008.0 1007.9 0.0
17/05:30pm 21.2 14.9 7.4 41 7.1 W 30 39 16 21 1007.9 1007.8 0.0
17/05:00pm 22.2 15.5 7.2 38 7.8 W 32 39 17 21 1007.7 1007.6 0.0
17/04:30pm 23.8 18.5 7.0 34 8.8 W 24 37 13 20 1007.6 1007.5 0.0
17/04:00pm 23.8 19.7 6.1 32 9.1 WSW 17 26 9 14 1007.9 1007.8 0.0
17/03:30pm 23.9 19.7 5.8 31 9.2 WNW 17 32 9 17 1008.1 1008.0 0.0
17/03:00pm 24.1 19.5 5.5 30 9.5 W 19 26 10 14 1008.3 1008.2 0.0
17/02:30pm 23.0 19.8 5.0 31 9.0 NNE 11 19 6 10 1008.5 1008.4 0.0
17/02:00pm 23.7 21.0 5.6 31 9.2 NNW 9 19 5 10 1009.0 1008.9 0.0
17/01:30pm 22.1 18.1 5.1 33 8.5 WNW 15 28 8 15 1009.4 1009.3 0.0
17/01:00pm 22.5 19.4 5.4 33 8.6 WSW 11 20 6 11 1009.8 1009.7 0.0
17/12:30pm 21.1 17.5 5.1 35 7.9 NW 13 22 7 12 1010.4 1010.3 0.0
17/12:00pm 20.7 17.1 5.1 36 7.7 NW 13 20 7 11 1010.7 1010.6 0.0
17/11:30am 19.9 16.0 5.5 39 7.1 NW 15 22 8 12 1011.1 1010.9 0.0
17/11:00am 19.4 16.4 5.8 41 6.7 WSW 11 19 6 10 1011.4 1011.2 0.0
17/10:30am 19.0 16.7 5.5 41 6.6 NE 7 13 4 7 1011.6 1011.4 0.0
17/10:00am 17.6 14.5 5.5 45 5.9 WSW 11 17 6 9 1011.6 1011.4 0.0
17/09:30am 17.3 15.1 6.2 48 5.5 SSE 7 11 4 6 1011.9 1011.7 0.0
17/09:00am 16.5 14.5 6.1 50 5.1 SSE 6 11 3 6 1012.0 1011.8 0.0
17/08:30am 16.1 14.3 7.3 56 4.4 ESE 6 7 3 4 1012.1 1011.9 0.0
17/08:00am 13.1 11.5 6.5 64 3.2 ENE 4 6 2 3 1012.2 1012.0 0.0
17/07:30am 10.5 9.5 5.7 72 2.2 CALM 0 2 0 1 1012.1 1011.9 0.0
17/07:00am 7.8 5.8 4.6 80 1.4 NE 4 6 2 3 1011.9 1011.7 0.0
17/06:30am 5.7 4.2 3.0 83 1.1 CALM 0 0 0 0 1011.6 1011.4 0.0
17/06:00am 5.3 3.7 2.7 83 1.1 CALM 0 0 0 0 1011.3 1011.1 0.0
17/05:30am 5.5 3.2 2.8 83 1.1 NE 4 6 2 3 1010.8 1010.7 0.0
17/05:00am 5.4 3.1 2.8 83 1.1 NNE 4 9 2 5 1010.7 1010.6 0.0
17/04:30am 5.5 3.9 2.3 80 1.3 CALM 0 0 0 0 1010.6 1010.5 0.0
17/04:00am 6.7 5.3 3.5 80 1.4 CALM 0 0 0 0 1010.4 1010.3 0.0
17/03:30am 6.5 5.1 3.5 81 1.3 CALM 0 0 0 0 1010.2 1010.1 0.0
17/03:00am 7.1 5.8 3.9 80 1.4 CALM 0 0 0 0 1010.3 1010.2 0.0
17/02:30am 7.1 5.7 3.5 78 1.5 CALM 0 0 0 0 1010.3 1010.2 0.0
17/02:00am 7.8 6.4 3.7 75 1.8 CALM 0 0 0 0 1010.4 1010.3 0.0
17/01:30am 8.5 7.2 4.3 75 1.8 CALM 0 0 0 0 1010.6 1010.5 0.0
17/01:00am 8.1 6.8 3.9 75 1.8 CALM 0 0 0 0 1011.0 1010.8 0.0
17/12:30am 8.5 7.2 3.9 73 2.0 CALM 0 0 0 0 1011.1 1010.9 0.0
17/12:00am 9.6 8.4 4.8 72 2.2 CALM 0 0 0 0 1011.1 1010.9 0.0
 
Date/Time
CDT
Temp
°C
App
Temp
°C
Dew
Point
Rel
Hum
%
Delta-T
°C
Wind Press
QNH
hPa
Press
MSL
hPa
Rain
since 9 am
mm
Dir
 
Spd
km/h
Gust
km/h
Spd
kts
Gust
kts
16/11:30pm 9.8 8.6 4.8 71 2.3 CALM 0 0 0 0 1011.1 1010.9 0.0
16/11:00pm 11.7 9.5 6.0 68 2.7 SSW 7 9 4 5 1011.3 1011.1 0.0
16/10:30pm 12.4 10.5 6.5 67 2.8 SSW 6 7 3 4 1011.3 1011.1 0.0
16/10:00pm 12.8 10.2 6.2 64 3.1 SW 9 11 5 6 1011.2 1011.0 0.0
16/09:30pm 14.2 10.6 6.6 60 3.7 SW 15 17 8 9 1011.2 1011.0 0.0
16/09:00pm 14.9 10.5 6.5 57 4.1 SSW 19 22 10 12 1010.8 1010.7 0.0
16/08:30pm 15.9 10.5 6.3 53 4.7 SW 24 30 13 16 1010.3 1010.2 0.0
16/08:00pm 16.7 10.8 7.4 54 4.7 SW 28 39 15 21 1010.0 1009.9 0.0
16/07:30pm 17.9 11.7 6.1 46 5.8 SW 28 37 15 20 1009.7 1009.6 0.0
16/07:00pm 18.7 11.9 5.2 41 6.6 SW 30 37 16 20 1009.2 1009.1 0.0
16/06:30pm 18.9 11.5 3.9 37 7.1 SW 32 44 17 24 1008.8 1008.7 0.0
16/06:00pm 20.1 12.7 4.2 35 7.7 SW 32 43 17 23 1008.6 1008.5 0.0
16/05:30pm 20.4 13.2 6.0 39 7.2 SW 33 46 18 25 1008.4 1008.3 0.0
16/05:20pm 20.7 13.0 5.5 37 7.5 WSW 35 57 19 31 1008.1 1008.0 0.0
16/05:00pm 19.5 11.7 4.8 38 7.1 SW 35 48 19 26 1008.2 1008.1 0.0
16/04:39pm 20.4 12.4 5.6 38 7.3 SW 37 56 20 30 1008.1 1008.0 0.0
16/04:30pm 20.0 12.7 7.1 43 6.6 SW 35 52 19 28 1008.1 1008.0 0.0
16/04:18pm 21.6 14.6 6.7 38 7.6 SW 33 52 18 28 1007.9 1007.8 0.0
16/04:00pm 20.7 13.3 6.6 40 7.1 SW 35 46 19 25 1007.9 1007.8 0.0
16/03:30pm 20.9 12.8 6.8 40 7.2 WSW 39 54 21 29 1007.7 1007.6 0.0
16/03:01pm 20.9 13.5 6.8 40 7.2 WSW 35 54 19 29 1007.6 1007.5 0.0
16/03:00pm 21.1 13.4 7.0 40 7.2 WSW 37 54 20 29 1007.6 1007.5 0.0
16/02:30pm 21.9 13.7 6.6 37 7.8 WSW 39 57 21 31 1007.2 1007.1 0.0
16/02:27pm 22.2 14.0 6.4 36 8.1 WSW 39 57 21 31 1007.1 1006.9 0.0
16/02:00pm 22.4 13.8 6.6 36 8.1 WSW 41 57 22 31 1007.0 1006.8 0.0
16/01:55pm 22.8 14.7 7.0 36 8.2 WSW 39 57 21 31 1006.9 1006.7 0.0
16/01:30pm 21.5 13.3 8.1 42 7.0 WSW 41 56 22 30 1006.7 1006.5 0.0
16/01:13pm 21.8 14.4 8.3 42 7.1 WSW 37 56 20 30 1006.5 1006.3 0.0
16/01:00pm 21.6 13.9 8.5 43 6.9 WSW 39 50 21 27 1006.4 1006.2 0.0
16/12:51pm 21.4 13.8 9.0 45 6.6 WSW 39 52 21 28 1006.3 1006.1 0.0
16/12:30pm 21.4 12.8 8.7 44 6.7 W 44 57 24 31 1006.0 1005.8 0.0
16/12:24pm 21.6 12.8 8.1 42 7.1 W 44 56 24 30 1005.9 1005.7 0.0
16/12:00pm 21.5 14.6 8.7 44 6.8 WSW 35 54 19 29 1005.9 1005.7 0.0
16/11:46am 22.3 14.1 9.8 45 6.8 W 43 61 23 33 1005.6 1005.4 0.0
16/11:30am 21.7 12.9 8.2 42 7.1 W 44 56 24 30 1005.4 1005.2 0.0
16/11:14am 21.4 13.9 9.6 47 6.4 WSW 39 57 21 31 1005.2 1005.0 0.0
16/11:00am 20.4 13.3 10.8 54 5.3 WSW 39 50 21 27 1005.0 1004.8 0.0
16/10:30am 20.4 12.7 11.6 57 4.9 WSW 43 57 23 31 1004.7 1004.5 0.0
16/10:00am 20.5 13.3 13.0 62 4.3 W 43 56 23 30 1004.3 1004.1 0.0
16/09:30am 20.4 14.4 13.4 64 4.0 W 37 50 20 27 1004.0 1003.8 0.0
16/09:00am 19.5 13.4 13.0 66 3.7 W 37 48 20 26 1003.8 1003.6 0.0
16/08:30am 19.0 14.8 13.4 70 3.2 W 28 35 15 19 1003.5 1003.3 0.0
16/08:00am 17.3 15.2 13.6 79 2.1 W 17 24 9 13 1003.3 1003.1 0.0
16/07:30am 15.7 14.6 13.0 84 1.5 WNW 11 13 6 7 1003.3 1003.1 0.0
16/07:00am 12.7 12.7 11.3 91 0.7 WSW 2 11 1 6 1003.4 1003.2 0.0
16/06:30am 10.8 9.8 8.9 88 0.9 NW 4 7 2 4 1002.7 1002.5 0.0
16/06:00am 11.9 10.7 10.3 90 0.8 W 7 9 4 5 1002.2 1002.0 0.0
16/05:30am 12.1 11.2 10.5 90 0.8 SW 6 7 3 4 1001.9 1001.7 0.0
16/05:00am 12.3 10.8 10.4 88 1.0 SW 9 11 5 6 1002.0 1001.8 0.0
16/04:30am 12.8 10.2 10.7 87 1.1 WSW 15 19 8 10 1002.3 1002.1 0.0
16/04:00am 12.4 10.1 10.3 87 1.1 W 13 17 7 9 1001.8 1001.6 0.0
16/03:30am 12.7 11.3 10.8 88 1.0 NNE 9 13 5 7 1001.0 1000.8 0.0
16/03:00am 11.7 9.3 10.1 90 0.8 NNE 13 17 7 9 1000.8 1000.6 0.0
16/02:30am 11.2 8.4 10.1 93 0.6 NE 15 19 8 10 1001.0 1000.8 0.0
16/02:00am 10.2 7.8 8.6 90 0.8 NNE 11 13 6 7 1002.0 1001.8 0.0
16/01:30am 8.7 6.8 6.5 86 1.0 NNE 6 11 3 6 1002.6 1002.4 0.0
16/01:00am 9.3 6.9 6.9 85 1.1 NE 9 11 5 6 1002.6 1002.4 0.0
16/12:30am 10.4 9.4 5.8 73 2.1 CALM 0 0 0 0 1003.7 1003.5 0.0
16/12:00am 11.5 11.1 8.4 81 1.5 CALM 0 0 0 0 1003.7 1003.5 0.0
 
Date/Time
CDT
Temp
°C
App
Temp
°C
Dew
Point
Rel
Hum
%
Delta-T
°C
Wind Press
QNH
hPa
Press
MSL
hPa
Rain
since 9 am
mm
Dir
 
Spd
km/h
Gust
km/h
Spd
kts
Gust
kts
15/11:30pm 12.8 12.7 9.4 80 1.7 CALM 0 6 0 3 1004.1 1003.9 0.0
15/11:00pm 13.6 12.3 9.1 74 2.3 ESE 6 9 3 5 1004.3 1004.1 0.0
15/10:30pm 14.8 13.4 9.4 70 2.8 ESE 7 9 4 5 1004.5 1004.3 0.0
15/10:00pm 15.6 13.1 9.7 68 3.1 S 13 15 7 8 1004.6 1004.4 0.0
15/09:30pm 16.2 14.1 9.8 66 3.4 S 11 17 6 9 1004.9 1004.7 0.0
15/09:00pm 17.1 14.6 9.8 62 3.9 SSW 13 17 7 9 1004.9 1004.7 0.0
15/08:30pm 18.8 15.2 9.8 56 4.8 SSW 19 24 10 13 1005.1 1004.9 0.0
15/08:00pm 20.7 16.6 10.2 51 5.7 SW 22 28 12 15 1005.1 1004.9 0.0
15/07:30pm 22.3 18.5 9.8 45 6.8 SSW 20 26 11 14 1004.8 1004.6 0.0
15/07:00pm 23.4 19.2 9.8 42 7.4 SW 22 26 12 14 1004.5 1004.3 0.0
15/06:30pm 23.9 19.4 10.2 42 7.6 SW 24 32 13 17 1004.6 1004.4 0.0
15/06:00pm 25.0 20.1 10.1 39 8.3 SW 26 33 14 18 1004.6 1004.4 0.0
15/05:30pm 24.8 19.5 9.9 39 8.2 SW 28 35 15 19 1004.7 1004.5 0.0
15/05:00pm 25.3 19.3 10.0 38 8.5 SSW 32 39 17 21 1004.5 1004.3 0.0
15/04:30pm 26.6 20.4 9.5 34 9.5 SSW 32 39 17 21 1004.5 1004.3 0.0
15/04:00pm 28.0 23.3 9.3 31 10.4 WSW 24 41 13 22 1004.6 1004.4 0.0
15/03:30pm 27.5 23.8 9.3 32 10.1 WNW 19 28 10 15 1004.7 1004.5 0.0
15/03:00pm 27.5 23.7 8.9 31 10.3 W 19 28 10 15 1004.9 1004.7 0.0
15/02:30pm 26.8 24.3 8.3 31 10.1 WSW 11 20 6 11 1005.4 1005.2 0.0
15/02:00pm 25.4 23.2 8.0 33 9.3 SSE 9 15 5 8 1005.8 1005.6 0.0
15/01:30pm 25.1 22.7 8.6 35 8.9 WSW 11 17 6 9 1006.4 1006.2 0.0
15/01:00pm 24.1 21.3 8.5 37 8.4 SSW 13 22 7 12 1007.0 1006.8 0.0
15/12:30pm 23.2 20.2 7.7 37 8.2 S 13 20 7 11 1007.4 1007.3 0.0
15/12:00pm 22.7 20.0 9.1 42 7.3 SSE 13 19 7 10 1007.7 1007.6 0.0
15/11:30am 22.3 19.2 8.8 42 7.2 SE 15 28 8 15 1008.1 1008.0 0.0
15/11:00am 21.0 18.5 9.6 48 6.1 SSE 13 22 7 12 1008.5 1008.4 0.0
15/10:30am 20.1 17.3 9.9 52 5.5 SSE 15 22 8 12 1008.8 1008.7 0.0
15/10:00am 20.0 16.8 10.1 53 5.3 S 17 26 9 14 1009.0 1008.9 0.0
15/09:30am 19.7 16.5 10.1 54 5.2 S 17 24 9 13 1009.3 1009.2 0.0
15/09:00am 18.6 15.1 10.2 58 4.5 SSE 19 24 10 13 1009.3 1009.2 0.0
15/08:30am 18.1 14.4 10.2 60 4.2 SE 20 26 11 14 1009.5 1009.4 0.0

Other Formats:

Comma delimited format used in spreadsheet applications
http://www.bom.gov.au/fwo/IDS60801/IDS60801.95663.axf

JavaScript Object Notation format (JSON) in row-major order
http://www.bom.gov.au/fwo/IDS60801/IDS60801.95663.json